createdAt,value
2022-11-16T00:00:32.818Z,2.03
2022-11-16T00:03:23.107Z,2.13
2022-11-16T00:06:12.265Z,2.30
2022-11-16T00:09:19.472Z,2.38
2022-11-16T00:12:11.157Z,2.63
2022-11-16T00:14:58.772Z,2.50
2022-11-16T00:17:46.587Z,2.58
2022-11-16T00:20:35.586Z,2.22
2022-11-16T00:23:23.797Z,2.35
2022-11-16T00:26:13.506Z,2.50
2022-11-16T00:29:01.331Z,2.27
2022-11-16T00:31:49.613Z,2.40
2022-11-16T00:34:37.164Z,2.75
2022-11-16T00:37:26.329Z,3.20
2022-11-16T00:40:14.335Z,3.05
2022-11-16T00:43:02.140Z,2.67
2022-11-16T00:45:50.024Z,2.90
2022-11-16T00:48:37.993Z,3.80
2022-11-16T00:51:25.865Z,3.13
2022-11-16T00:54:15.686Z,3.08
2022-11-16T00:57:03.580Z,3.70
2022-11-16T00:59:51.924Z,3.92
2022-11-16T01:02:40.868Z,4.25
2022-11-16T01:05:28.918Z,3.67
2022-11-16T01:08:16.677Z,3.95
2022-11-16T01:11:19.976Z,4.23
2022-11-16T01:14:10.557Z,4.15
2022-11-16T01:16:58.334Z,4.10
2022-11-16T01:19:46.335Z,4.30
2022-11-16T01:22:36.104Z,3.63
2022-11-16T01:25:27.157Z,3.20
2022-11-16T01:28:16.346Z,3.55
2022-11-16T01:31:10.735Z,3.25
2022-11-16T01:33:58.892Z,3.70
2022-11-16T01:36:49.874Z,3.15
2022-11-16T01:39:39.280Z,3.87
2022-11-16T01:42:30.373Z,4.45
2022-11-16T01:45:27.389Z,3.20
2022-11-16T01:48:21.989Z,2.65
2022-11-16T01:51:11.082Z,2.53
2022-11-16T01:54:01.864Z,2.53
2022-11-16T01:56:51.883Z,2.60
2022-11-16T01:59:51.236Z,3.13
2022-11-16T02:02:43.308Z,3.15
2022-11-16T02:05:54.735Z,2.80
2022-11-16T02:09:14.032Z,2.93
2022-11-16T02:12:24.746Z,3.22
2022-11-16T02:15:20.171Z,2.72
2022-11-16T02:18:28.575Z,3.28
2022-11-16T02:21:33.388Z,3.53
2022-11-16T02:24:43.935Z,3.10
2022-11-16T02:27:51.065Z,3.80
2022-11-16T02:30:45.953Z,3.03
2022-11-16T02:33:38.645Z,2.90
2022-11-16T02:36:27.642Z,3.50
2022-11-16T02:39:20.916Z,3.27
2022-11-16T02:42:14.935Z,3.40
2022-11-16T02:45:06.753Z,3.05
2022-11-16T02:48:02.982Z,3.55
2022-11-16T02:50:53.615Z,3.13
2022-11-16T02:53:51.919Z,2.80
2022-11-16T02:56:48.756Z,2.78
2022-11-16T02:59:43.943Z,2.90
2022-11-16T03:02:38.556Z,3.20
2022-11-16T03:05:33.240Z,3.13
2022-11-16T03:08:29.471Z,3.13
2022-11-16T03:11:37.240Z,2.80
2022-11-16T03:14:30.828Z,3.00
2022-11-16T03:17:26.664Z,3.10
2022-11-16T03:20:17.367Z,2.80
2022-11-16T03:23:09.858Z,3.10
2022-11-16T03:25:59.602Z,3.65
2022-11-16T03:28:53.692Z,3.40
2022-11-16T03:31:49.070Z,3.13
2022-11-16T03:34:42.973Z,3.38
2022-11-16T03:37:32.332Z,3.43
2022-11-16T03:40:24.490Z,3.20
2022-11-16T03:43:13.474Z,3.40
2022-11-16T03:46:01.783Z,3.55
2022-11-16T03:48:49.965Z,3.17
2022-11-16T03:51:44.731Z,3.13
2022-11-16T03:54:32.954Z,3.17
2022-11-16T03:57:23.049Z,3.42
2022-11-16T04:00:15.863Z,3.35
2022-11-16T04:03:04.980Z,3.60
2022-11-16T04:06:11.443Z,3.27
2022-11-16T04:09:16.851Z,3.50
2022-11-16T04:12:22.524Z,3.83
2022-11-16T04:15:29.838Z,3.53
2022-11-16T04:18:36.313Z,4.30
2022-11-16T04:21:54.433Z,3.53
2022-11-16T04:24:50.296Z,3.75
2022-11-16T04:27:56.144Z,3.78
2022-11-16T04:31:05.103Z,4.78
2022-11-16T04:34:17.732Z,4.97
2022-11-16T04:37:28.405Z,4.67
2022-11-16T04:40:17.560Z,5.18
2022-11-16T04:43:06.216Z,5.75
2022-11-16T04:46:16.934Z,4.68
2022-11-16T04:49:04.659Z,5.25
2022-11-16T04:51:52.552Z,5.47
2022-11-16T04:54:40.847Z,4.78
2022-11-16T04:57:29.891Z,4.88
2022-11-16T05:00:19.397Z,4.97
2022-11-16T05:03:08.225Z,5.20
2022-11-16T05:05:56.433Z,4.80
2022-11-16T05:08:44.229Z,5.55
2022-11-16T05:11:32.083Z,4.00
2022-11-16T05:14:20.434Z,4.65
2022-11-16T05:17:09.536Z,4.95
2022-11-16T05:20:15.894Z,5.53
2022-11-16T05:23:29.896Z,4.95
2022-11-16T05:26:21.427Z,5.72
2022-11-16T05:29:09.708Z,5.53
2022-11-16T05:31:57.662Z,5.47
2022-11-16T05:34:47.945Z,5.27
2022-11-16T05:37:37.571Z,5.88
2022-11-16T05:40:26.408Z,5.55
2022-11-16T05:43:18.936Z,5.25
2022-11-16T05:46:17.385Z,5.28
2022-11-16T05:49:08.249Z,4.80
2022-11-16T05:51:57.768Z,5.47
2022-11-16T05:54:47.024Z,6.00
2022-11-16T05:57:34.732Z,5.75
2022-11-16T06:00:22.825Z,5.03
2022-11-16T06:03:13.050Z,4.63
2022-11-16T06:06:01.858Z,5.25
2022-11-16T06:08:51.174Z,5.78
2022-11-16T06:11:45.507Z,5.30
2022-11-16T06:14:33.682Z,4.65
2022-11-16T06:17:21.431Z,4.93
2022-11-16T06:20:10.262Z,5.97
2022-11-16T06:22:59.055Z,5.90
2022-11-16T06:25:47.789Z,5.40
2022-11-16T06:28:37.891Z,5.82
2022-11-16T06:31:25.639Z,5.60
2022-11-16T06:34:15.477Z,5.50
2022-11-16T06:37:03.232Z,5.30
2022-11-16T06:39:50.852Z,6.00
2022-11-16T06:42:38.684Z,4.85
2022-11-16T06:45:28.920Z,5.67
2022-11-16T06:48:20.521Z,6.70
2022-11-16T06:51:08.886Z,6.53
2022-11-16T06:53:57.042Z,6.57
2022-11-16T06:56:45.307Z,7.03
2022-11-16T06:59:33.108Z,6.80
2022-11-16T07:02:23.369Z,7.78
2022-11-16T07:05:11.387Z,6.70
2022-11-16T07:08:00.772Z,5.95
2022-11-16T07:10:48.536Z,4.95
2022-11-16T07:13:37.335Z,5.00
2022-11-16T07:16:25.976Z,4.75
2022-11-16T07:19:19.640Z,5.75
2022-11-16T07:22:07.415Z,4.60
2022-11-16T07:24:55.256Z,5.10
2022-11-16T07:27:44.210Z,4.43
2022-11-16T07:30:32.676Z,4.43
2022-11-16T07:33:27.448Z,4.63
2022-11-16T07:36:40.673Z,4.55
2022-11-16T07:39:29.435Z,5.00
2022-11-16T07:42:17.848Z,4.90
2022-11-16T07:45:26.512Z,5.65
2022-11-16T07:48:18.894Z,6.55
2022-11-16T07:51:27.030Z,6.50
2022-11-16T07:54:32.690Z,5.93
2022-11-16T07:57:20.701Z,7.07
2022-11-16T08:00:10.656Z,6.22
2022-11-16T08:03:11.405Z,5.57
2022-11-16T08:06:01.465Z,5.47
2022-11-16T08:08:56.700Z,5.20
2022-11-16T08:11:48.695Z,5.47
2022-11-16T08:14:36.580Z,5.47
2022-11-16T08:17:24.493Z,6.05
2022-11-16T08:20:13.771Z,5.85
2022-11-16T08:23:03.063Z,6.50
2022-11-16T08:25:58.996Z,6.27
2022-11-16T08:28:54.045Z,5.15
2022-11-16T08:31:46.302Z,4.75
2022-11-16T08:34:38.155Z,5.03
2022-11-16T08:37:28.335Z,4.70
2022-11-16T08:40:16.777Z,4.57
2022-11-16T08:43:04.707Z,4.35
2022-11-16T08:45:54.875Z,4.32
2022-11-16T08:48:43.597Z,4.32
2022-11-16T08:51:31.515Z,5.00
2022-11-16T08:54:24.519Z,5.57
2022-11-16T08:57:12.465Z,6.60
2022-11-16T09:00:02.298Z,6.72
2022-11-16T09:02:51.547Z,6.03
2022-11-16T09:05:40.435Z,5.47
2022-11-16T09:08:28.007Z,4.40
2022-11-16T09:11:18.354Z,5.35
2022-11-16T09:14:06.118Z,5.57
2022-11-16T09:16:54.008Z,5.68
2022-11-16T09:19:43.572Z,6.15
2022-11-16T09:22:31.683Z,6.80
2022-11-16T09:25:19.594Z,6.82
2022-11-16T09:28:07.849Z,6.50
2022-11-16T09:30:55.285Z,6.72
2022-11-16T09:33:43.210Z,6.45
2022-11-16T09:36:32.558Z,7.00
2022-11-16T09:39:31.030Z,6.32
2022-11-16T09:42:38.121Z,7.38
2022-11-16T09:45:34.377Z,8.15
2022-11-16T09:48:24.068Z,7.38
2022-11-16T09:51:17.056Z,6.83
2022-11-16T09:54:10.067Z,7.03
2022-11-16T09:57:02.025Z,6.43
2022-11-16T09:59:53.356Z,6.97
2022-11-16T10:02:46.576Z,6.38
2022-11-16T10:05:40.421Z,5.30
2022-11-16T10:08:37.010Z,5.38
2022-11-16T10:11:45.479Z,5.35
2022-11-16T10:15:18.964Z,4.35
2022-11-16T10:18:23.637Z,4.85
2022-11-16T10:21:25.046Z,4.43
2022-11-16T10:24:41.149Z,4.50
2022-11-16T10:27:47.845Z,4.63
2022-11-16T10:30:41.748Z,5.22
2022-11-16T10:33:36.328Z,6.25
2022-11-16T10:36:27.691Z,5.70
2022-11-16T10:39:18.328Z,4.90
2022-11-16T10:42:11.626Z,5.32
2022-11-16T10:45:09.665Z,5.35
2022-11-16T10:48:03.306Z,6.40
2022-11-16T10:50:53.328Z,5.90
2022-11-16T10:53:43.996Z,6.10
2022-11-16T10:56:37.444Z,7.43
2022-11-16T10:59:40.414Z,6.35
2022-11-16T11:02:34.841Z,6.80
2022-11-16T11:05:23.066Z,7.23
2022-11-16T11:08:12.789Z,6.25
2022-11-16T11:11:23.095Z,6.68
2022-11-16T11:14:13.320Z,5.53
2022-11-16T11:17:12.629Z,6.25
2022-11-16T11:20:05.771Z,6.00
2022-11-16T11:22:57.202Z,4.80
2022-11-16T11:25:52.744Z,3.85
2022-11-16T11:28:49.395Z,3.50
2022-11-16T11:31:44.009Z,3.28
2022-11-16T11:34:34.731Z,2.93
2022-11-16T11:37:27.557Z,3.05
2022-11-16T11:40:21.212Z,3.05
2022-11-16T11:43:23.738Z,2.75
2022-11-16T11:46:19.629Z,2.58
2022-11-16T11:49:14.656Z,2.50
2022-11-16T11:52:10.483Z,2.20
2022-11-16T11:54:59.963Z,2.35
2022-11-16T11:57:50.956Z,2.13
2022-11-16T12:00:48.515Z,2.58
2022-11-16T12:03:56.672Z,2.50
2022-11-16T12:06:52.946Z,2.17
2022-11-16T12:09:47.883Z,2.42
2022-11-16T12:12:48.851Z,2.42
2022-11-16T12:15:59.203Z,1.80
2022-11-16T12:19:10.047Z,1.60
2022-11-16T12:22:11.212Z,1.60
2022-11-16T12:25:09.376Z,2.15
2022-11-16T12:28:12.925Z,1.55
2022-11-16T12:31:20.370Z,1.50
2022-11-16T12:34:17.244Z,1.63
2022-11-16T12:37:13.574Z,1.80
2022-11-16T12:40:32.192Z,1.50
2022-11-16T12:43:29.679Z,1.38
2022-11-16T12:46:27.100Z,1.92
2022-11-16T12:49:42.100Z,1.77
2022-11-16T12:52:47.448Z,1.92
2022-11-16T12:55:42.236Z,1.73
2022-11-16T12:58:47.951Z,1.20
2022-11-16T13:01:41.034Z,1.30
2022-11-16T13:04:33.729Z,1.40
2022-11-16T13:07:26.343Z,1.10
2022-11-16T13:10:19.574Z,1.73
2022-11-16T13:13:35.449Z,1.50
2022-11-16T13:16:26.596Z,1.60
2022-11-16T13:19:17.346Z,1.50
2022-11-16T13:22:13.961Z,1.70
2022-11-16T13:25:07.777Z,1.30
2022-11-16T13:28:06.594Z,1.70
2022-11-16T13:31:03.214Z,1.05
2022-11-16T13:33:56.999Z,1.60
2022-11-16T13:36:47.919Z,1.45
2022-11-16T13:40:22.618Z,1.45
2022-11-16T13:43:19.175Z,1.30
2022-11-16T13:46:06.901Z,1.23
2022-11-16T13:48:55.889Z,0.90
2022-11-16T13:51:53.135Z,1.05
2022-11-16T13:54:45.869Z,0.90
2022-11-16T13:57:35.975Z,1.25
2022-11-16T14:00:27.666Z,1.10
2022-11-16T14:03:30.965Z,0.90
2022-11-16T14:07:00.524Z,0.98
2022-11-16T14:09:50.109Z,0.80
2022-11-16T14:12:59.438Z,0.88
2022-11-16T14:15:47.090Z,1.00
2022-11-16T14:18:37.515Z,1.10
2022-11-16T14:21:40.913Z,0.80
2022-11-16T14:24:35.366Z,1.13
2022-11-16T14:27:31.060Z,1.05
2022-11-16T14:30:24.408Z,0.93
2022-11-16T14:33:24.706Z,1.00
2022-11-16T14:36:12.864Z,0.93
2022-11-16T14:39:16.718Z,1.00
2022-11-16T14:42:15.968Z,0.93
2022-11-16T14:45:06.376Z,0.98
2022-11-16T14:47:59.786Z,0.80
2022-11-16T14:51:03.847Z,0.80
2022-11-16T14:53:56.109Z,0.90
2022-11-16T14:56:57.546Z,1.00
2022-11-16T14:59:46.890Z,0.95
2022-11-16T15:02:35.758Z,0.90
2022-11-16T15:05:28.630Z,1.20
2022-11-16T15:08:20.532Z,1.15
2022-11-16T15:11:14.533Z,1.05
2022-11-16T15:14:02.282Z,1.33
2022-11-16T15:16:53.302Z,1.00
2022-11-16T15:19:41.165Z,1.02
2022-11-16T15:22:31.023Z,1.20
2022-11-16T15:25:27.952Z,1.60
2022-11-16T15:28:18.137Z,1.80
2022-11-16T15:31:09.573Z,1.20
2022-11-16T15:33:58.786Z,2.05
2022-11-16T15:36:47.705Z,1.70
2022-11-16T15:39:37.427Z,1.88
2022-11-16T15:42:27.190Z,1.98
2022-11-16T15:45:23.578Z,1.97
2022-11-16T15:48:23.188Z,1.60
2022-11-16T15:51:17.971Z,2.03
2022-11-16T15:54:16.190Z,2.25
2022-11-16T15:57:09.674Z,1.60
2022-11-16T15:59:58.332Z,1.53
2022-11-16T16:02:46.329Z,1.60
2022-11-16T16:05:35.675Z,2.65
2022-11-16T16:08:32.016Z,2.00
2022-11-16T16:11:29.686Z,2.33
2022-11-16T16:14:26.204Z,2.43
2022-11-16T16:17:23.966Z,2.60
2022-11-16T16:20:20.136Z,2.80
2022-11-16T16:23:10.425Z,1.80
2022-11-16T16:26:05.017Z,1.85
2022-11-16T16:28:53.225Z,1.97
2022-11-16T16:31:40.996Z,1.98
2022-11-16T16:34:28.848Z,2.30
2022-11-16T16:37:16.502Z,2.10
2022-11-16T16:40:04.940Z,2.10
2022-11-16T16:42:54.294Z,1.67
2022-11-16T16:45:44.001Z,1.90
2022-11-16T16:48:31.887Z,1.65
2022-11-16T16:51:19.375Z,1.45
2022-11-16T16:54:07.619Z,1.58
2022-11-16T16:56:56.053Z,2.13
2022-11-16T16:59:48.509Z,2.45
2022-11-16T17:02:38.033Z,2.20
2022-11-16T17:05:26.452Z,2.78
2022-11-16T17:08:14.258Z,2.33
2022-11-16T17:11:02.112Z,2.17
2022-11-16T17:13:49.956Z,2.05
2022-11-16T17:16:39.252Z,2.72
2022-11-16T17:19:27.188Z,3.45
2022-11-16T17:22:15.225Z,4.55
2022-11-16T17:25:04.229Z,4.33
2022-11-16T17:27:52.054Z,3.22
2022-11-16T17:30:39.895Z,4.65
2022-11-16T17:33:29.112Z,4.93
2022-11-16T17:36:18.034Z,5.07
2022-11-16T17:39:06.317Z,3.43
2022-11-16T17:41:54.083Z,3.80
2022-11-16T17:44:42.021Z,3.70
2022-11-16T17:47:32.705Z,4.47
2022-11-16T17:50:21.790Z,4.50
2022-11-16T17:53:09.353Z,5.97
2022-11-16T17:55:57.192Z,6.82
2022-11-16T17:58:45.542Z,6.38
2022-11-16T18:01:34.114Z,5.10
2022-11-16T18:04:22.632Z,5.40
2022-11-16T18:07:11.978Z,5.90
2022-11-16T18:10:00.418Z,5.82
2022-11-16T18:12:48.269Z,6.10
2022-11-16T18:15:41.912Z,5.78
2022-11-16T18:18:30.206Z,5.70
2022-11-16T18:21:20.693Z,5.23
2022-11-16T18:24:11.107Z,5.20
2022-11-16T18:26:59.492Z,5.60
2022-11-16T18:29:48.353Z,5.95
2022-11-16T18:32:36.792Z,6.05
2022-11-16T18:35:25.489Z,5.63
2022-11-16T18:38:14.367Z,4.53
2022-11-16T18:41:14.773Z,6.07
2022-11-16T18:44:04.299Z,7.90
2022-11-16T18:46:53.130Z,7.35
2022-11-16T18:49:41.992Z,5.63
2022-11-16T18:52:33.278Z,6.00
2022-11-16T18:55:22.053Z,5.53
2022-11-16T18:58:35.815Z,6.13
2022-11-16T19:01:23.709Z,6.65
2022-11-16T19:04:13.164Z,7.00
2022-11-16T19:07:02.385Z,6.60
2022-11-16T19:09:51.050Z,7.25
2022-11-16T19:12:39.907Z,6.32
2022-11-16T19:15:30.282Z,7.50
2022-11-16T19:18:22.223Z,7.70
2022-11-16T19:21:13.685Z,7.13
2022-11-16T19:24:02.682Z,7.70
2022-11-16T19:26:51.766Z,7.05
2022-11-16T19:29:40.203Z,7.63
2022-11-16T19:32:32.555Z,8.13
2022-11-16T19:35:21.807Z,7.50
2022-11-16T19:38:10.832Z,7.35
2022-11-16T19:40:59.914Z,7.75
2022-11-16T19:43:48.602Z,7.78
2022-11-16T19:46:37.627Z,7.37
2022-11-16T19:49:28.155Z,7.85
2022-11-16T19:52:16.862Z,8.25
2022-11-16T19:55:06.347Z,7.85
2022-11-16T19:57:55.837Z,8.15
2022-11-16T20:00:45.048Z,7.53
2022-11-16T20:03:34.365Z,6.72
2022-11-16T20:06:26.925Z,7.93
2022-11-16T20:09:15.750Z,6.93
2022-11-16T20:12:04.396Z,6.68
2022-11-16T20:14:53.359Z,6.30
2022-11-16T20:17:41.889Z,7.05
2022-11-16T20:20:34.020Z,6.80
2022-11-16T20:23:32.166Z,7.55
2022-11-16T20:26:23.887Z,7.18
2022-11-16T20:29:15.337Z,6.83
2022-11-16T20:32:04.357Z,6.70
2022-11-16T20:34:52.921Z,7.60
2022-11-16T20:37:41.290Z,7.72
2022-11-16T20:40:30.683Z,8.40
2022-11-16T20:43:19.917Z,7.13
2022-11-16T20:46:08.205Z,7.35
2022-11-16T20:48:57.402Z,7.20
2022-11-16T20:51:47.110Z,7.22
2022-11-16T20:54:35.513Z,6.20
2022-11-16T20:57:25.221Z,5.40
2022-11-16T21:00:14.493Z,6.72
2022-11-16T21:03:02.036Z,5.40
2022-11-16T21:05:52.892Z,6.38
2022-11-16T21:08:41.749Z,5.80
2022-11-16T21:11:51.396Z,5.17
2022-11-16T21:14:39.142Z,5.25
2022-11-16T21:17:26.643Z,6.00
2022-11-16T21:20:27.460Z,5.97
2022-11-16T21:23:15.820Z,6.18
2022-11-16T21:26:04.545Z,6.67
2022-11-16T21:28:53.000Z,6.60
2022-11-16T21:31:42.202Z,6.90
2022-11-16T21:34:33.590Z,7.15
2022-11-16T21:37:25.371Z,6.68
2022-11-16T21:40:13.845Z,6.90
2022-11-16T21:43:01.516Z,6.65
2022-11-16T21:45:49.856Z,5.97
2022-11-16T21:48:39.570Z,6.25
2022-11-16T21:51:28.201Z,6.38
2022-11-16T21:54:15.901Z,6.13
2022-11-16T21:57:03.630Z,6.10
2022-11-16T21:59:51.408Z,7.47
2022-11-16T22:02:39.082Z,6.57
2022-11-16T22:05:50.561Z,6.13
2022-11-16T22:08:38.174Z,6.07
2022-11-16T22:11:25.590Z,5.82
2022-11-16T22:14:13.331Z,5.55
2022-11-16T22:17:01.840Z,5.90
2022-11-16T22:19:49.923Z,5.47
2022-11-16T22:22:38.937Z,5.97
2022-11-16T22:25:27.002Z,5.90
2022-11-16T22:28:20.574Z,5.80
2022-11-16T22:31:11.283Z,6.13
2022-11-16T22:33:58.917Z,5.88
2022-11-16T22:36:46.796Z,6.33
2022-11-16T22:39:36.863Z,7.80
2022-11-16T22:42:24.369Z,6.45
2022-11-16T22:45:12.262Z,6.43
2022-11-16T22:48:00.105Z,6.70
2022-11-16T22:50:47.879Z,6.07
2022-11-16T22:53:36.178Z,6.90
2022-11-16T22:56:25.951Z,6.97
2022-11-16T22:59:13.801Z,5.60
2022-11-16T23:02:05.223Z,6.47
2022-11-16T23:04:53.024Z,5.87
2022-11-16T23:07:43.994Z,5.97
2022-11-16T23:10:51.909Z,5.85
2022-11-16T23:13:58.320Z,5.93
2022-11-16T23:16:46.964Z,6.22
2022-11-16T23:19:52.449Z,5.40
2022-11-16T23:22:57.937Z,5.38
2022-11-16T23:26:03.078Z,5.47
2022-11-16T23:28:52.652Z,5.82
2022-11-16T23:31:40.748Z,6.22
2022-11-16T23:34:28.196Z,4.77
2022-11-16T23:37:15.991Z,5.95
2022-11-16T23:40:03.854Z,6.68
2022-11-16T23:43:10.908Z,6.60
2022-11-16T23:45:59.893Z,5.97
2022-11-16T23:48:47.448Z,6.03
2022-11-16T23:51:35.215Z,6.15
2022-11-16T23:54:22.985Z,6.55
2022-11-16T23:57:10.946Z,6.57
2022-11-16T23:59:58.840Z,5.85
